createdAt,value
2023-02-08T09:34:28.734Z,20.40
2023-02-08T09:37:42.506Z,19.05
2023-02-08T09:40:59.919Z,20.05
2023-02-08T09:51:22.106Z,20.77
2023-02-08T09:54:42.862Z,20.83
2023-02-08T09:58:07.881Z,20.85
2023-02-08T10:01:19.632Z,21.83
2023-02-08T10:04:38.552Z,21.42
2023-02-08T10:08:09.509Z,20.20
2023-02-08T10:11:49.256Z,19.70
2023-02-08T10:15:13.399Z,19.83
2023-02-08T10:18:53.585Z,19.42
2023-02-08T10:22:21.447Z,20.38
2023-02-08T10:25:59.465Z,20.83
2023-02-08T10:30:00.588Z,20.02
2023-02-08T10:33:09.550Z,20.10
2023-02-08T10:36:17.041Z,21.27
2023-02-08T10:39:25.484Z,20.52
2023-02-08T10:42:30.940Z,20.60
2023-02-08T10:45:42.233Z,20.88
2023-02-08T10:49:00.009Z,19.35
2023-02-08T10:52:03.268Z,19.65
2023-02-08T10:55:14.845Z,20.27
2023-02-08T10:58:21.295Z,19.00
2023-02-08T11:01:24.307Z,19.17
2023-02-08T11:04:27.010Z,19.40
2023-02-08T11:07:30.168Z,20.92
2023-02-08T11:10:33.076Z,19.92
2023-02-08T11:13:39.140Z,19.30
2023-02-08T11:16:43.256Z,19.73
2023-02-08T11:19:46.964Z,18.80
2023-02-08T11:22:49.470Z,19.88
2023-02-08T11:25:53.257Z,19.58
2023-02-08T11:29:06.046Z,18.88
2023-02-08T11:32:18.255Z,18.35
2023-02-08T11:35:22.610Z,19.00
2023-02-08T11:38:27.629Z,19.10
2023-02-08T11:41:30.863Z,19.02
2023-02-08T11:44:36.898Z,19.48
2023-02-08T11:47:39.477Z,20.27
2023-02-08T11:50:42.880Z,18.30
2023-02-08T11:53:49.261Z,19.92
2023-02-08T11:57:02.813Z,19.52
2023-02-08T12:00:21.038Z,21.45
2023-02-08T12:03:27.362Z,19.13
2023-02-08T12:07:02.710Z,18.55
2023-02-08T12:10:32.254Z,17.80
2023-02-08T12:13:57.073Z,19.10
2023-02-08T12:17:25.713Z,18.70
2023-02-08T12:20:37.077Z,19.25
2023-02-08T12:23:51.421Z,19.40
2023-02-08T12:27:08.891Z,18.98
2023-02-08T12:30:21.370Z,18.55
2023-02-08T12:33:40.017Z,20.05
2023-02-08T12:37:16.366Z,18.35
2023-02-08T12:40:49.012Z,18.42
2023-02-08T12:44:02.274Z,18.27
2023-02-08T12:47:16.961Z,19.80
2023-02-08T12:50:27.426Z,18.58
2023-02-08T12:53:34.789Z,21.08
2023-02-08T12:56:42.441Z,20.45
2023-02-08T12:59:50.679Z,20.10
2023-02-08T13:03:02.900Z,21.35
2023-02-08T13:06:09.002Z,21.40
2023-02-08T13:09:18.940Z,21.33
2023-02-08T13:12:24.862Z,19.63
2023-02-08T13:15:33.775Z,21.27
2023-02-08T13:18:40.914Z,19.75
2023-02-08T13:21:45.545Z,20.10
2023-02-08T13:24:55.294Z,20.33
2023-02-08T13:28:05.832Z,19.08
2023-02-08T13:31:14.215Z,21.30
2023-02-08T13:34:23.485Z,21.38
2023-02-08T13:37:31.469Z,21.95
2023-02-08T13:40:36.264Z,22.42
2023-02-08T13:43:43.572Z,21.83
2023-02-08T13:46:48.579Z,22.10
2023-02-08T13:50:00.858Z,21.60
2023-02-08T13:53:05.342Z,22.33
2023-02-08T13:56:10.350Z,20.70
2023-02-08T13:59:30.133Z,21.98
2023-02-08T14:02:32.645Z,20.75
2023-02-08T14:05:47.293Z,22.33
2023-02-08T14:08:58.369Z,22.65
2023-02-08T14:12:06.250Z,22.13
2023-02-08T14:15:26.459Z,20.63
2023-02-08T14:18:29.833Z,21.05
2023-02-08T14:21:37.348Z,20.45
2023-02-08T14:24:43.913Z,21.75
2023-02-08T14:27:52.470Z,20.20
2023-02-08T14:30:58.829Z,23.02
2023-02-08T14:34:01.525Z,22.27
2023-02-08T14:37:07.574Z,22.58
2023-02-08T14:40:35.107Z,22.52
2023-02-08T14:43:39.119Z,20.88
2023-02-08T14:46:45.641Z,21.30
2023-02-08T14:49:48.966Z,22.88
2023-02-08T14:52:59.883Z,23.23
2023-02-08T14:56:08.507Z,22.30
2023-02-08T14:59:15.718Z,22.85
2023-02-08T15:02:22.861Z,22.13
2023-02-08T15:05:28.069Z,22.00
2023-02-08T15:08:30.722Z,21.95
2023-02-08T15:11:36.350Z,21.75
2023-02-08T15:14:41.834Z,21.65
2023-02-08T15:17:48.075Z,22.88
2023-02-08T15:21:01.712Z,21.08
2023-02-08T15:24:07.847Z,21.75
2023-02-08T15:27:21.959Z,21.27
2023-02-08T15:30:32.754Z,21.15
2023-02-08T15:33:38.129Z,21.50
2023-02-08T15:36:40.920Z,22.33
2023-02-08T15:39:43.756Z,22.13
2023-02-08T15:42:47.634Z,21.63
2023-02-08T15:45:57.691Z,23.38
2023-02-08T15:49:00.666Z,23.38
2023-02-08T15:52:04.207Z,25.98
2023-02-08T15:55:07.859Z,29.23
2023-02-08T15:58:19.426Z,36.85
